createdAt,value
2022-09-07T00:02:28.764Z,16.97
2022-09-07T00:05:21.915Z,16.98
2022-09-07T00:08:14.556Z,16.97
2022-09-07T00:11:08.472Z,16.96
2022-09-07T00:14:00.081Z,16.93
2022-09-07T00:16:52.215Z,16.94
2022-09-07T00:19:43.799Z,16.91
2022-09-07T00:22:37.686Z,16.91
2022-09-07T00:25:31.955Z,16.96
2022-09-07T00:28:23.814Z,16.94
2022-09-07T00:31:16.858Z,17.01
2022-09-07T00:34:08.804Z,16.94
2022-09-07T00:37:00.546Z,16.95
2022-09-07T00:39:54.027Z,16.90
2022-09-07T00:42:45.711Z,16.88
2022-09-07T00:45:37.532Z,16.86
2022-09-07T00:48:34.718Z,16.90
2022-09-07T00:51:30.455Z,16.91
2022-09-07T00:54:26.979Z,16.89
2022-09-07T00:57:21.139Z,16.88
2022-09-07T01:00:13.157Z,16.84
2022-09-07T01:03:06.485Z,16.77
2022-09-07T01:06:03.452Z,16.71
2022-09-07T01:08:57.727Z,16.72
2022-09-07T01:11:51.027Z,16.69
2022-09-07T01:14:48.062Z,16.72
2022-09-07T01:18:00.208Z,16.78
2022-09-07T01:21:10.090Z,16.78
2022-09-07T01:24:34.181Z,16.81
2022-09-07T01:27:55.458Z,16.74
2022-09-07T01:30:55.355Z,16.72
2022-09-07T01:33:58.559Z,16.78
2022-09-07T01:36:56.136Z,16.69
2022-09-07T01:39:53.995Z,16.71
2022-09-07T01:42:52.392Z,16.73
2022-09-07T01:45:46.544Z,16.69
2022-09-07T01:48:41.845Z,16.68
2022-09-07T01:51:37.135Z,16.74
2022-09-07T01:54:33.848Z,16.73
2022-09-07T01:57:32.677Z,16.79
2022-09-07T02:00:24.317Z,16.80
2022-09-07T02:03:21.134Z,16.75
2022-09-07T02:06:18.196Z,16.74
2022-09-07T02:09:15.955Z,16.87
2022-09-07T02:12:17.003Z,16.86
2022-09-07T02:15:14.326Z,16.84
2022-09-07T02:18:08.561Z,16.87
2022-09-07T02:21:02.797Z,16.83
2022-09-07T02:24:01.827Z,16.87
2022-09-07T02:26:56.900Z,16.83
2022-09-07T02:29:48.878Z,16.84
2022-09-07T02:32:40.589Z,16.88
2022-09-07T02:35:32.513Z,16.79
2022-09-07T02:38:24.723Z,16.79
2022-09-07T02:41:36.130Z,16.76
2022-09-07T02:44:31.728Z,16.80
2022-09-07T02:47:38.774Z,16.78
2022-09-07T02:51:08.329Z,16.83
2022-09-07T02:54:25.363Z,16.75
2022-09-07T02:57:27.438Z,16.72
2022-09-07T03:00:25.920Z,16.72
2022-09-07T03:03:24.642Z,16.71
2022-09-07T03:06:24.463Z,16.77
2022-09-07T03:09:19.887Z,16.79
2022-09-07T03:12:12.541Z,16.74
2022-09-07T03:15:06.954Z,16.72
2022-09-07T03:17:58.299Z,16.78
2022-09-07T03:20:50.356Z,16.71
2022-09-07T03:23:42.206Z,16.63
2022-09-07T03:26:34.058Z,16.65
2022-09-07T03:29:25.652Z,16.59
2022-09-07T03:32:18.623Z,16.63
2022-09-07T03:35:10.914Z,16.62
2022-09-07T03:38:02.926Z,16.58
2022-09-07T03:40:59.839Z,16.59
2022-09-07T03:43:51.359Z,16.60
2022-09-07T03:46:44.242Z,16.53
2022-09-07T03:49:37.243Z,16.58
2022-09-07T03:52:28.680Z,16.54
2022-09-07T03:55:20.525Z,16.49
2022-09-07T03:58:12.183Z,16.53
2022-09-07T04:01:07.568Z,16.55
2022-09-07T04:04:02.819Z,16.48
2022-09-07T04:06:56.322Z,16.46
2022-09-07T04:09:51.250Z,16.48
2022-09-07T04:12:43.252Z,16.38
2022-09-07T04:15:35.254Z,16.41
2022-09-07T04:18:27.460Z,16.38
2022-09-07T04:21:19.766Z,16.45
2022-09-07T04:24:13.062Z,16.41
2022-09-07T04:27:04.638Z,16.52
2022-09-07T04:29:56.223Z,16.56
2022-09-07T04:32:48.522Z,16.42
2022-09-07T04:35:41.003Z,16.43
2022-09-07T04:38:32.555Z,16.38
2022-09-07T04:41:26.231Z,16.39
2022-09-07T04:44:17.793Z,16.44
2022-09-07T04:47:09.380Z,16.42
2022-09-07T04:50:01.161Z,16.44
2022-09-07T04:52:52.687Z,16.45
2022-09-07T04:55:44.204Z,16.44
2022-09-07T04:58:37.237Z,16.48
2022-09-07T05:01:29.568Z,16.47
2022-09-07T05:04:21.462Z,16.52
2022-09-07T05:07:12.897Z,16.55
2022-09-07T05:10:05.496Z,16.61
2022-09-07T05:12:57.035Z,16.66
2022-09-07T05:15:50.501Z,16.74
2022-09-07T05:18:42.638Z,16.77
2022-09-07T05:21:35.515Z,16.70
2022-09-07T05:24:27.553Z,16.69
2022-09-07T05:27:19.622Z,16.80
2022-09-07T05:36:38.186Z,16.91
2022-09-07T05:39:30.323Z,16.92
2022-09-07T05:42:22.736Z,16.95
2022-09-07T05:45:14.740Z,16.93
2022-09-07T05:48:06.180Z,16.97
2022-09-07T05:50:59.376Z,16.98
2022-09-07T05:53:51.393Z,17.06
2022-09-07T05:56:43.396Z,16.99
2022-09-07T05:59:35.356Z,17.00
2022-09-07T06:02:27.113Z,17.00
2022-09-07T06:05:18.922Z,16.95
2022-09-07T06:08:12.136Z,16.96
2022-09-07T06:11:06.687Z,17.02
2022-09-07T06:13:58.533Z,16.98
2022-09-07T06:16:50.673Z,17.00
2022-09-07T06:19:42.564Z,16.95
2022-09-07T06:22:36.348Z,16.95
2022-09-07T06:25:29.816Z,16.99
2022-09-07T06:28:21.476Z,16.93
2022-09-07T06:31:15.959Z,16.86
2022-09-07T06:34:08.939Z,16.74
2022-09-07T06:37:00.707Z,16.59
2022-09-07T06:39:52.373Z,16.60
2022-09-07T06:42:45.897Z,16.54
2022-09-07T06:45:37.743Z,16.57
2022-09-07T06:48:30.223Z,16.58
2022-09-07T06:51:26.703Z,16.58
2022-09-07T06:57:30.439Z,16.55
2022-09-07T07:00:23.596Z,16.38
2022-09-07T07:03:15.261Z,16.26
2022-09-07T07:06:07.565Z,15.92
2022-09-07T07:08:59.094Z,15.69
2022-09-07T07:11:50.920Z,15.38
2022-09-07T07:14:45.025Z,15.23
2022-09-07T07:17:38.811Z,15.04
2022-09-07T07:20:30.319Z,14.97
2022-09-07T07:23:21.849Z,14.93
2022-09-07T07:26:15.872Z,14.77
2022-09-07T07:29:07.703Z,14.76
2022-09-07T07:31:59.186Z,14.68
2022-09-07T07:34:52.122Z,14.62
2022-09-07T07:37:43.807Z,14.62
2022-09-07T07:40:37.604Z,14.63
2022-09-07T07:43:31.580Z,14.63
2022-09-07T07:46:25.085Z,14.55
2022-09-07T07:49:17.070Z,14.51
2022-09-07T07:58:34.934Z,14.41
2022-09-07T08:01:26.478Z,14.37
2022-09-07T08:04:18.503Z,14.32
2022-09-07T08:07:12.970Z,14.29
2022-09-07T08:10:04.913Z,14.32
2022-09-07T08:12:57.368Z,14.38
2022-09-07T08:15:49.135Z,14.40
2022-09-07T08:18:46.360Z,14.34
2022-09-07T08:21:38.883Z,14.36
2022-09-07T08:24:32.234Z,14.42
2022-09-07T08:27:24.189Z,14.43
2022-09-07T08:30:16.072Z,14.50
2022-09-07T08:33:07.655Z,14.54
2022-09-07T08:36:01.118Z,14.58
2022-09-07T08:38:52.987Z,14.60
2022-09-07T08:42:19.064Z,14.59
2022-09-07T08:45:15.736Z,14.63
2022-09-07T08:48:08.155Z,14.67
2022-09-07T08:51:05.274Z,14.69
2022-09-07T08:53:57.383Z,14.69
2022-09-07T09:00:08.671Z,14.86
2022-09-07T09:06:20.283Z,15.12
2022-09-07T09:09:22.917Z,15.18
2022-09-07T09:12:25.001Z,15.21
2022-09-07T09:15:22.161Z,15.22
2022-09-07T09:18:24.742Z,15.28
2022-09-07T09:21:19.850Z,15.43
2022-09-07T09:24:15.771Z,15.36
2022-09-07T09:27:07.753Z,15.56
2022-09-07T09:29:59.141Z,15.84
2022-09-07T09:33:12.412Z,16.14
2022-09-07T09:36:04.108Z,16.39
2022-09-07T09:38:56.355Z,16.52
2022-09-07T09:41:49.395Z,16.60
2022-09-07T09:44:43.338Z,16.66
2022-09-07T09:47:36.975Z,16.72
2022-09-07T09:53:54.425Z,16.87
2022-09-07T09:56:48.975Z,16.99
2022-09-07T09:59:57.976Z,17.08
2022-09-07T10:06:19.715Z,17.25
2022-09-07T10:09:21.423Z,17.31
2022-09-07T10:12:26.680Z,17.42
2022-09-07T10:15:27.335Z,17.53
2022-09-07T10:18:22.027Z,17.57
2022-09-07T10:21:26.411Z,17.68
2022-09-07T10:24:26.120Z,17.85
2022-09-07T10:27:29.281Z,18.06
2022-09-07T10:30:21.046Z,18.26
2022-09-07T10:33:19.327Z,18.43
2022-09-07T10:36:16.453Z,18.52
2022-09-07T10:39:15.619Z,18.44
2022-09-07T10:42:12.343Z,18.47
2022-09-07T10:45:16.146Z,18.69
2022-09-07T10:48:15.136Z,18.92
2022-09-07T10:51:14.387Z,19.08
2022-09-07T10:54:34.568Z,19.17
2022-09-07T10:57:39.650Z,19.28
2022-09-07T11:00:39.376Z,19.42
2022-09-07T11:03:50.011Z,19.50
2022-09-07T11:06:44.181Z,19.69
2022-09-07T11:09:52.884Z,19.73
2022-09-07T11:12:45.968Z,19.68
2022-09-07T11:15:44.141Z,19.78
2022-09-07T11:18:40.588Z,19.92
2022-09-07T11:28:17.581Z,20.11
2022-09-07T11:31:19.611Z,20.26
2022-09-07T11:34:26.283Z,20.34
2022-09-07T11:37:23.031Z,20.40
2022-09-07T11:40:23.596Z,20.57
2022-09-07T11:43:21.689Z,20.73
2022-09-07T11:46:18.308Z,20.70
2022-09-07T11:49:17.334Z,20.82
2022-09-07T11:52:20.090Z,20.99
2022-09-07T11:55:19.684Z,21.20
2022-09-07T11:58:35.828Z,21.37
2022-09-07T12:01:37.976Z,21.36
2022-09-07T12:05:00.474Z,21.30
2022-09-07T12:08:15.355Z,21.41
2022-09-07T12:11:24.267Z,21.54
2022-09-07T12:14:26.666Z,21.83
2022-09-07T12:17:33.736Z,21.88
2022-09-07T12:20:38.979Z,21.90
2022-09-07T12:23:32.463Z,22.03
2022-09-07T12:26:52.508Z,22.16
2022-09-07T12:29:45.784Z,22.12
2022-09-07T12:33:04.403Z,22.18
2022-09-07T12:35:58.920Z,22.29
2022-09-07T12:39:07.311Z,22.45
2022-09-07T12:42:38.174Z,22.36
2022-09-07T12:45:51.427Z,22.41
2022-09-07T12:48:51.796Z,22.36
2022-09-07T12:52:15.186Z,22.40
2022-09-07T12:55:29.266Z,22.39
2022-09-07T12:58:36.718Z,22.49
2022-09-07T13:01:37.651Z,22.44
2022-09-07T13:04:52.631Z,22.37
2022-09-07T13:08:09.102Z,22.44
2022-09-07T13:11:18.009Z,22.54
2022-09-07T13:14:21.032Z,22.60
2022-09-07T13:17:43.162Z,22.79
2022-09-07T13:20:39.859Z,22.82
2022-09-07T13:23:34.199Z,22.88
2022-09-07T13:26:53.635Z,22.89
2022-09-07T13:29:50.696Z,22.81
2022-09-07T13:35:59.017Z,22.84
2022-09-07T13:38:51.853Z,22.83
2022-09-07T13:41:47.684Z,23.00
2022-09-07T13:44:40.061Z,23.07
2022-09-07T13:47:53.960Z,23.05
2022-09-07T13:50:53.564Z,22.98
2022-09-07T13:53:57.611Z,22.93
2022-09-07T13:56:57.937Z,22.82
2022-09-07T13:59:52.840Z,22.86
2022-09-07T14:02:45.391Z,22.80
2022-09-07T14:05:38.606Z,22.83
2022-09-07T14:08:32.012Z,22.91
2022-09-07T14:11:26.019Z,22.86
2022-09-07T14:14:20.373Z,22.93
2022-09-07T14:17:16.158Z,22.88
2022-09-07T14:20:15.507Z,22.80
2022-09-07T14:23:17.122Z,22.65
2022-09-07T14:26:16.594Z,22.59
2022-09-07T14:29:23.314Z,22.66
2022-09-07T14:32:18.774Z,22.70
2022-09-07T14:35:12.585Z,22.88
2022-09-07T14:38:08.215Z,23.04
2022-09-07T14:41:03.569Z,23.17
2022-09-07T14:43:56.750Z,23.39
2022-09-07T14:46:54.646Z,23.26
2022-09-07T14:49:52.073Z,23.27
2022-09-07T14:53:33.900Z,23.15
2022-09-07T14:56:04.008Z,22.99
2022-09-07T14:58:55.768Z,22.92
2022-09-07T15:01:47.695Z,22.83
2022-09-07T15:04:39.723Z,22.73
2022-09-07T15:07:38.972Z,22.84
2022-09-07T15:10:36.892Z,22.96
2022-09-07T15:13:34.217Z,23.06
2022-09-07T15:16:28.332Z,23.03
2022-09-07T15:19:31.418Z,23.02
2022-09-07T15:22:23.369Z,23.00
2022-09-07T15:25:15.324Z,23.02
2022-09-07T15:28:07.459Z,22.95
2022-09-07T15:34:13.631Z,22.83
2022-09-07T15:38:00.950Z,22.79
2022-09-07T15:40:20.604Z,22.75
2022-09-07T15:43:20.359Z,22.87
2022-09-07T15:46:14.657Z,22.96
2022-09-07T15:49:06.486Z,22.95
2022-09-07T15:52:05.510Z,22.92
2022-09-07T15:54:57.651Z,22.87
2022-09-07T15:57:54.566Z,22.99
2022-09-07T16:01:51.523Z,22.95
2022-09-07T16:04:04.671Z,22.91
2022-09-07T16:06:56.740Z,22.90
2022-09-07T16:09:48.927Z,22.85
2022-09-07T16:13:01.172Z,22.90
2022-09-07T16:15:54.209Z,22.90
2022-09-07T16:18:47.194Z,22.92
2022-09-07T16:21:41.059Z,22.90
2022-09-07T16:24:34.040Z,22.96
2022-09-07T16:27:28.111Z,22.91
2022-09-07T16:30:22.301Z,22.88
2022-09-07T16:33:14.266Z,22.88
2022-09-07T16:36:09.176Z,22.85
2022-09-07T16:39:03.075Z,22.83
2022-09-07T16:41:55.061Z,22.78
2022-09-07T16:44:46.826Z,22.67
2022-09-07T16:47:38.431Z,22.62
2022-09-07T16:50:29.913Z,22.62
2022-09-07T16:53:21.795Z,22.61
2022-09-07T16:56:17.004Z,22.55
2022-09-07T16:59:10.228Z,22.56
2022-09-07T17:02:02.168Z,22.48
2022-09-07T17:04:53.727Z,22.50
2022-09-07T17:07:45.096Z,22.45
2022-09-07T17:10:36.918Z,22.42
2022-09-07T17:13:31.341Z,22.36
2022-09-07T17:16:24.860Z,22.36
2022-09-07T17:19:32.671Z,22.22
2022-09-07T17:22:26.312Z,22.23
2022-09-07T17:25:18.135Z,22.08
2022-09-07T17:28:10.173Z,22.00
2022-09-07T17:31:07.956Z,21.99
2022-09-07T17:34:01.467Z,21.84
2022-09-07T17:36:52.888Z,21.82
2022-09-07T17:39:44.554Z,21.81
2022-09-07T17:45:47.891Z,21.71
2022-09-07T17:48:40.597Z,21.65
2022-09-07T17:51:33.438Z,21.46
2022-09-07T17:54:25.852Z,21.33
2022-09-07T17:57:17.575Z,21.20
2022-09-07T18:00:11.859Z,21.13
2022-09-07T18:03:04.004Z,21.04
2022-09-07T18:05:57.237Z,20.96
2022-09-07T18:08:49.651Z,20.92
2022-09-07T18:11:47.153Z,20.88
2022-09-07T18:14:39.695Z,20.81
2022-09-07T18:17:32.032Z,20.74
2022-09-07T18:20:24.292Z,20.68
2022-09-07T18:23:17.265Z,20.63
2022-09-07T18:26:09.437Z,20.59
2022-09-07T18:29:08.390Z,20.53
2022-09-07T18:32:08.942Z,20.47
2022-09-07T18:35:01.116Z,20.41
2022-09-07T18:37:52.896Z,20.35
2022-09-07T18:40:45.562Z,20.30
2022-09-07T18:43:38.932Z,20.27
2022-09-07T18:46:30.557Z,20.27
2022-09-07T18:49:22.496Z,20.21
2022-09-07T18:55:25.702Z,20.07
2022-09-07T18:58:18.713Z,20.02
2022-09-07T19:01:12.988Z,19.97
2022-09-07T19:04:05.954Z,19.91
2022-09-07T19:06:57.795Z,19.86
2022-09-07T19:09:49.356Z,19.82
2022-09-07T19:12:45.473Z,19.79
2022-09-07T19:15:39.005Z,19.74
2022-09-07T19:18:30.538Z,19.70
2022-09-07T19:21:24.130Z,19.67
2022-09-07T19:24:18.250Z,19.66
2022-09-07T19:27:09.698Z,19.64
2022-09-07T19:30:01.734Z,19.62
2022-09-07T19:32:54.866Z,19.59
2022-09-07T19:35:46.874Z,19.58
2022-09-07T19:38:38.418Z,19.54
2022-09-07T19:41:30.342Z,19.51
2022-09-07T19:44:21.754Z,19.47
2022-09-07T19:47:13.678Z,19.47
2022-09-07T19:50:07.530Z,19.46
2022-09-07T19:52:59.359Z,19.47
2022-09-07T19:55:51.006Z,19.50
2022-09-07T19:58:44.374Z,19.47
2022-09-07T20:01:36.439Z,19.45
2022-09-07T20:04:28.344Z,19.43
2022-09-07T20:07:21.299Z,19.42
2022-09-07T20:10:12.980Z,19.40
2022-09-07T20:13:04.770Z,19.39
2022-09-07T20:15:56.631Z,19.38
2022-09-07T20:18:48.758Z,19.38
2022-09-07T20:21:40.530Z,19.39
2022-09-07T20:24:35.237Z,19.35
2022-09-07T20:27:26.693Z,19.32
2022-09-07T20:30:18.720Z,19.28
2022-09-07T20:33:10.386Z,19.25
2022-09-07T20:36:05.452Z,19.22
2022-09-07T20:38:57.895Z,19.23
2022-09-07T20:41:50.971Z,19.16
2022-09-07T20:44:42.855Z,19.05
2022-09-07T20:47:34.235Z,18.98
2022-09-07T20:50:26.126Z,18.94
2022-09-07T20:53:17.672Z,18.88
2022-09-07T20:56:12.513Z,18.85
2022-09-07T20:59:06.781Z,18.83
2022-09-07T21:01:58.606Z,18.79
2022-09-07T21:04:49.966Z,18.75
2022-09-07T21:07:42.257Z,18.73
2022-09-07T21:10:33.960Z,18.70
2022-09-07T21:13:25.890Z,18.67
2022-09-07T21:16:18.932Z,18.65
2022-09-07T21:19:12.077Z,18.66
2022-09-07T21:22:03.667Z,18.64
2022-09-07T21:24:55.226Z,18.60
2022-09-07T21:27:46.679Z,18.60
2022-09-07T21:30:38.298Z,18.58
2022-09-07T21:33:34.926Z,18.59
2022-09-07T21:36:27.679Z,18.57
2022-09-07T21:39:20.833Z,18.54
2022-09-07T21:42:12.636Z,18.51
2022-09-07T21:45:04.440Z,18.47
2022-09-07T21:47:56.091Z,18.44
2022-09-07T21:50:49.055Z,18.42
2022-09-07T21:53:40.745Z,18.39
2022-09-07T21:56:32.718Z,18.38
2022-09-07T21:59:24.263Z,18.35
2022-09-07T22:02:15.675Z,18.32
2022-09-07T22:05:08.108Z,18.30
2022-09-07T22:08:00.865Z,18.26
2022-09-07T22:10:52.561Z,18.25
2022-09-07T22:13:44.748Z,18.22
2022-09-07T22:16:36.528Z,18.20
2022-09-07T22:19:27.838Z,18.16
2022-09-07T22:22:19.684Z,18.13
2022-09-07T22:25:12.284Z,18.10
2022-09-07T22:28:04.283Z,18.09
2022-09-07T22:30:56.066Z,18.05
2022-09-07T22:33:49.407Z,17.99
2022-09-07T22:36:43.090Z,17.96
2022-09-07T22:39:34.753Z,17.92
2022-09-07T22:42:27.455Z,17.84
2022-09-07T22:45:19.368Z,17.80
2022-09-07T22:48:11.018Z,17.76
2022-09-07T22:51:03.624Z,17.74
2022-09-07T22:53:56.226Z,17.74
2022-09-07T22:56:47.868Z,17.73
2022-09-07T22:59:40.759Z,17.69
2022-09-07T23:02:32.686Z,17.68
2022-09-07T23:05:24.412Z,17.64
2022-09-07T23:08:16.351Z,17.59
2022-09-07T23:11:07.992Z,17.57
2022-09-07T23:14:01.896Z,17.56
2022-09-07T23:16:54.908Z,17.54
2022-09-07T23:19:46.475Z,17.49
2022-09-07T23:22:37.805Z,17.49
2022-09-07T23:25:29.883Z,17.48
2022-09-07T23:28:21.378Z,17.43
2022-09-07T23:31:13.627Z,17.42
2022-09-07T23:34:06.811Z,17.40
2022-09-07T23:36:58.252Z,17.38
2022-09-07T23:39:49.697Z,17.35
2022-09-07T23:42:41.661Z,17.31
2022-09-07T23:45:33.223Z,17.28
2022-09-07T23:48:25.116Z,17.27
2022-09-07T23:51:23.576Z,17.26
2022-09-07T23:54:15.840Z,17.25
2022-09-07T23:57:07.194Z,17.20
2022-09-07T23:59:59.200Z,17.16
